createdAt,value
2019-04-29T02:00:40.867Z,5.20
2019-04-29T02:03:09.984Z,3.63
2019-04-29T02:05:39.115Z,4.67
2019-04-29T02:08:08.231Z,6.23
2019-04-29T02:10:37.358Z,4.50
2019-04-29T02:13:07.449Z,5.80
2019-04-29T02:15:36.572Z,4.47
2019-04-29T02:18:05.699Z,5.07
2019-04-29T02:20:34.839Z,6.47
2019-04-29T02:23:09.172Z,4.77
2019-04-29T02:25:45.662Z,4.13
2019-04-29T02:28:14.799Z,7.53
2019-04-29T02:30:47.711Z,7.40
2019-04-29T02:33:16.832Z,7.23
2019-04-29T02:35:46.696Z,6.00
2019-04-29T02:38:17.568Z,6.73
2019-04-29T02:40:48.315Z,5.90
2019-04-29T02:43:21.976Z,5.77
2019-04-29T02:45:51.093Z,4.87
2019-04-29T02:48:20.481Z,6.17
2019-04-29T02:50:49.617Z,6.30
2019-04-29T02:53:19.711Z,7.03
2019-04-29T02:55:50.732Z,4.50
2019-04-29T02:58:21.493Z,7.73
2019-04-29T03:01:08.498Z,6.87
2019-04-29T03:03:55.632Z,10.67
2019-04-29T03:06:25.899Z,9.00
2019-04-29T03:08:55.037Z,7.57
2019-04-29T03:11:24.139Z,6.00
2019-04-29T03:13:53.294Z,7.17
2019-04-29T03:16:22.412Z,3.40
2019-04-29T03:18:53.365Z,3.40
2019-04-29T03:21:27.110Z,4.93
2019-04-29T03:23:56.298Z,4.97
2019-04-29T03:26:25.410Z,4.73
2019-04-29T03:28:54.543Z,5.17
2019-04-29T03:31:23.701Z,7.47
2019-04-29T03:33:52.814Z,5.03
2019-04-29T03:36:22.826Z,4.53
2019-04-29T03:38:51.939Z,3.97
2019-04-29T03:41:21.112Z,4.90
2019-04-29T03:43:50.248Z,4.40
2019-04-29T03:46:19.382Z,3.73
2019-04-29T03:48:48.521Z,6.33
2019-04-29T03:51:17.650Z,5.57
2019-04-29T03:53:47.065Z,3.63
2019-04-29T03:56:16.200Z,7.67
2019-04-29T03:58:45.564Z,3.70
2019-04-29T04:01:16.343Z,5.43
2019-04-29T04:03:51.187Z,4.63
2019-04-29T04:06:27.923Z,5.50
2019-04-29T04:09:06.091Z,5.03
2019-04-29T04:11:31.176Z,4.87
2019-04-29T04:14:00.308Z,5.63
2019-04-29T04:16:47.476Z,5.63
2019-04-29T04:19:16.980Z,4.90
2019-04-29T04:21:46.117Z,7.50
2019-04-29T04:24:15.227Z,5.77
2019-04-29T04:26:44.357Z,4.00
2019-04-29T04:29:13.488Z,7.10
2019-04-29T04:31:42.604Z,4.03
2019-04-29T04:34:11.737Z,4.47
2019-04-29T04:36:40.889Z,8.03
2019-04-29T04:39:10.004Z,5.43
2019-04-29T04:41:39.122Z,6.13
2019-04-29T04:44:08.249Z,5.27
2019-04-29T04:46:37.364Z,6.73
2019-04-29T04:49:06.488Z,6.47
2019-04-29T04:51:36.294Z,9.10
2019-04-29T04:54:05.404Z,5.83
2019-04-29T04:56:35.595Z,6.43
2019-04-29T04:59:04.801Z,7.23
2019-04-29T05:01:33.928Z,5.20
2019-04-29T05:04:03.525Z,6.03
2019-04-29T05:06:32.657Z,5.67
2019-04-29T05:09:03.117Z,6.27
2019-04-29T05:11:33.507Z,4.70
2019-04-29T05:14:02.615Z,4.33
2019-04-29T05:16:32.005Z,5.53
2019-04-29T05:19:01.229Z,4.97
2019-04-29T05:21:31.632Z,5.47
2019-04-29T05:24:02.611Z,7.77
2019-04-29T05:26:31.742Z,6.83
2019-04-29T05:29:01.424Z,6.90
2019-04-29T05:31:31.123Z,7.33
2019-04-29T05:34:00.260Z,8.57
2019-04-29T05:36:47.460Z,9.23
2019-04-29T05:39:34.552Z,9.53
2019-04-29T05:42:07.685Z,9.07
2019-04-29T05:44:37.635Z,8.37
2019-04-29T05:47:18.078Z,9.20
2019-04-29T05:49:48.891Z,8.13
2019-04-29T05:52:34.831Z,7.93
2019-04-29T05:55:02.696Z,10.57
2019-04-29T05:57:31.815Z,11.43
2019-04-29T06:00:01.661Z,10.77
2019-04-29T06:02:36.338Z,12.97
2019-04-29T06:05:05.947Z,10.17
2019-04-29T06:07:35.079Z,9.63
2019-04-29T06:10:06.234Z,10.87
2019-04-29T06:12:35.362Z,12.57
2019-04-29T06:15:06.240Z,9.93
2019-04-29T06:17:35.513Z,10.73
2019-04-29T06:20:06.052Z,11.63
2019-04-29T06:22:37.885Z,8.80
2019-04-29T06:25:06.754Z,9.90
2019-04-29T06:27:35.875Z,8.93
2019-04-29T06:30:10.092Z,9.83
2019-04-29T06:32:39.231Z,10.13
2019-04-29T06:35:10.571Z,9.73
2019-04-29T06:37:39.175Z,9.20
2019-04-29T06:40:08.557Z,10.77
2019-04-29T06:42:37.675Z,10.27
2019-04-29T06:45:06.892Z,12.00
2019-04-29T06:47:36.030Z,11.03
2019-04-29T06:50:06.998Z,10.77
2019-04-29T06:52:36.124Z,9.53
2019-04-29T06:55:06.223Z,10.37
2019-04-29T06:57:35.348Z,10.53
2019-04-29T07:00:08.038Z,10.77
2019-04-29T07:02:37.157Z,12.57
2019-04-29T07:05:07.034Z,11.13
2019-04-29T07:07:36.184Z,17.67
2019-04-29T07:10:05.471Z,9.97
2019-04-29T07:12:34.624Z,16.30
2019-04-29T07:15:07.655Z,9.47
2019-04-29T07:17:41.184Z,9.23
2019-04-29T07:20:07.652Z,11.23
2019-04-29T07:22:36.783Z,13.53
2019-04-29T07:25:06.361Z,12.00
2019-04-29T07:27:42.995Z,11.73
2019-04-29T07:30:08.413Z,10.60
2019-04-29T07:32:42.130Z,11.23
2019-04-29T07:35:09.790Z,12.50
2019-04-29T07:37:39.768Z,11.50
2019-04-29T07:40:10.223Z,10.10
2019-04-29T07:42:39.837Z,11.63
2019-04-29T07:45:28.146Z,13.80
2019-04-29T07:48:01.669Z,11.40
2019-04-29T07:50:30.303Z,12.60
2019-04-29T07:52:59.449Z,11.50
2019-04-29T07:55:30.979Z,11.40
2019-04-29T07:57:59.411Z,11.07
2019-04-29T08:00:33.811Z,10.17
2019-04-29T08:03:03.877Z,9.80
2019-04-29T08:05:32.995Z,9.73
2019-04-29T08:08:03.411Z,11.87
2019-04-29T08:10:32.527Z,14.43
2019-04-29T08:13:02.689Z,11.20
2019-04-29T08:15:32.195Z,14.37
2019-04-29T08:18:06.669Z,14.13
2019-04-29T08:20:35.452Z,13.57
2019-04-29T08:23:05.260Z,11.27
2019-04-29T08:25:34.581Z,11.60
2019-04-29T08:28:04.831Z,12.67
2019-04-29T08:30:33.972Z,12.60
2019-04-29T08:33:03.358Z,12.23
2019-04-29T08:35:36.425Z,15.20
2019-04-29T08:38:03.387Z,12.10
2019-04-29T08:40:34.221Z,14.00
2019-04-29T08:43:11.139Z,12.30
2019-04-29T08:45:47.636Z,12.13
2019-04-29T08:48:17.072Z,16.83
2019-04-29T08:50:46.200Z,13.77
2019-04-29T08:53:15.344Z,15.17
2019-04-29T08:55:44.506Z,16.43
2019-04-29T08:58:13.644Z,15.20
2019-04-29T09:00:42.787Z,14.63
2019-04-29T09:03:11.925Z,14.70
2019-04-29T09:05:41.688Z,15.57
2019-04-29T09:08:13.479Z,16.17
2019-04-29T09:10:42.951Z,14.90
2019-04-29T09:13:12.080Z,16.43
2019-04-29T09:15:41.540Z,15.40
2019-04-29T09:18:11.288Z,17.23
2019-04-29T09:20:41.178Z,15.87
2019-04-29T09:23:12.216Z,17.43
2019-04-29T09:26:02.064Z,15.10
2019-04-29T09:28:27.381Z,16.03
2019-04-29T09:30:51.347Z,15.93
2019-04-29T09:33:20.476Z,17.13
2019-04-29T09:35:49.630Z,16.90
2019-04-29T09:38:18.759Z,18.93
2019-04-29T09:40:59.786Z,18.25
2019-04-29T09:43:32.879Z,18.07
2019-04-29T09:46:04.871Z,17.03
2019-04-29T09:48:34.019Z,17.87
2019-04-29T09:51:16.779Z,20.50
2019-04-29T09:53:36.651Z,17.67
2019-04-29T09:56:05.775Z,17.53
2019-04-29T09:58:34.924Z,19.13
2019-04-29T10:01:05.688Z,16.20
2019-04-29T10:03:52.716Z,17.90
2019-04-29T10:06:32.231Z,16.90
2019-04-29T10:09:01.840Z,18.63
2019-04-29T10:11:32.605Z,16.27
2019-04-29T10:14:02.491Z,17.53
2019-04-29T10:16:37.145Z,16.10
2019-04-29T10:19:11.000Z,16.90
2019-04-29T10:21:40.143Z,16.67
2019-04-29T10:24:09.435Z,21.17
2019-04-29T10:26:38.583Z,18.70
2019-04-29T10:29:18.525Z,15.60
2019-04-29T10:31:46.500Z,14.97
2019-04-29T10:34:15.707Z,16.77
2019-04-29T10:36:44.837Z,18.40
2019-04-29T10:39:31.819Z,17.33
2019-04-29T10:42:02.582Z,14.20
2019-04-29T10:44:33.366Z,15.40
2019-04-29T10:47:25.115Z,13.03
2019-04-29T10:49:55.999Z,12.80
2019-04-29T10:52:25.665Z,13.80
2019-04-29T10:54:55.420Z,12.70
2019-04-29T10:57:29.169Z,12.33
2019-04-29T11:00:01.038Z,12.57
2019-04-29T11:02:33.729Z,14.03
2019-04-29T11:05:07.958Z,15.60
2019-04-29T11:07:43.141Z,16.37
2019-04-29T11:10:29.157Z,16.80
2019-04-29T11:12:58.530Z,17.53
2019-04-29T11:15:32.417Z,15.70
2019-04-29T11:18:03.351Z,15.53
2019-04-29T11:20:31.175Z,12.33
2019-04-29T11:23:09.133Z,11.30
2019-04-29T11:25:43.141Z,11.13
2019-04-29T11:28:16.221Z,10.70
2019-04-29T11:30:44.243Z,10.03
2019-04-29T11:33:35.640Z,10.17
2019-04-29T11:36:06.701Z,11.10
2019-04-29T11:38:38.308Z,9.97
2019-04-29T11:41:12.199Z,8.80
2019-04-29T11:43:40.063Z,8.63
2019-04-29T11:46:09.887Z,11.17
2019-04-29T11:48:40.132Z,8.53
2019-04-29T11:51:13.871Z,9.20
2019-04-29T11:53:43.307Z,9.27
2019-04-29T11:56:12.448Z,9.37
2019-04-29T11:58:55.471Z,8.87
2019-04-29T12:01:47.182Z,9.10
2019-04-29T12:04:23.262Z,8.60
2019-04-29T12:06:56.342Z,9.00
2019-04-29T12:09:25.502Z,10.43
2019-04-29T12:11:54.392Z,9.90
2019-04-29T12:14:27.884Z,10.60
2019-04-29T12:17:08.661Z,11.63
2019-04-29T12:19:42.982Z,15.60
2019-04-29T12:22:26.011Z,15.43
2019-04-29T12:24:43.231Z,16.23
2019-04-29T12:27:14.870Z,11.93
2019-04-29T12:29:43.206Z,25.63
2019-04-29T12:32:20.488Z,16.13
2019-04-29T12:34:49.163Z,14.23
2019-04-29T12:37:25.671Z,12.97
2019-04-29T12:39:59.732Z,14.33
2019-04-29T12:42:42.943Z,15.53
2019-04-29T12:45:30.164Z,13.53
2019-04-29T12:47:59.331Z,13.23
2019-04-29T12:50:28.696Z,13.83
2019-04-29T12:52:57.818Z,14.57
2019-04-29T12:55:49.315Z,15.30
2019-04-29T12:58:12.446Z,18.57
2019-04-29T13:00:48.193Z,17.90
2019-04-29T13:03:17.101Z,18.33
2019-04-29T13:06:02.510Z,21.97
2019-04-29T13:08:38.946Z,19.00
2019-04-29T13:11:09.660Z,21.40
2019-04-29T13:13:38.787Z,19.77
2019-04-29T13:16:25.968Z,19.77
2019-04-29T13:19:10.615Z,20.40
2019-04-29T13:21:30.600Z,20.00
2019-04-29T13:24:13.491Z,21.80
2019-04-29T13:26:33.190Z,21.13
2019-04-29T13:29:04.115Z,19.10
2019-04-29T13:31:38.584Z,22.70
2019-04-29T13:34:22.861Z,22.58
2019-04-29T13:36:36.568Z,23.10
2019-04-29T13:39:06.623Z,21.07
2019-04-29T13:41:56.160Z,23.83
2019-04-29T13:44:09.834Z,19.90
2019-04-29T13:46:40.623Z,22.20
2019-04-29T13:49:17.603Z,21.50
2019-04-29T13:51:51.323Z,23.47
2019-04-29T13:54:20.448Z,20.67
2019-04-29T13:56:56.104Z,18.03
2019-04-29T13:59:24.827Z,18.27
2019-04-29T14:02:07.490Z,18.23
2019-04-29T14:04:37.620Z,19.10
2019-04-29T14:07:07.022Z,16.50
2019-04-29T14:09:39.211Z,17.50
2019-04-29T14:12:46.694Z,21.73
2019-04-29T14:14:38.631Z,19.90
2019-04-29T14:17:25.464Z,21.87
2019-04-29T14:19:42.271Z,19.07
2019-04-29T14:22:21.996Z,17.53
2019-04-29T14:24:41.897Z,17.23
2019-04-29T14:27:24.142Z,17.77
2019-04-29T14:29:42.204Z,20.23
2019-04-29T14:32:11.335Z,16.43
2019-04-29T14:34:57.155Z,20.60
2019-04-29T14:37:27.371Z,15.30
2019-04-29T14:39:56.815Z,15.47
2019-04-29T14:42:56.817Z,17.57
2019-04-29T14:45:21.973Z,15.47
2019-04-29T14:48:09.255Z,15.50
2019-04-29T14:50:40.100Z,13.70
2019-04-29T14:53:09.431Z,14.90
2019-04-29T14:55:38.909Z,14.53
2019-04-29T14:58:08.051Z,15.40
2019-04-29T15:00:44.839Z,15.40
2019-04-29T15:03:14.447Z,14.80
2019-04-29T15:05:43.750Z,15.07
2019-04-29T15:08:12.934Z,15.00
2019-04-29T15:10:42.975Z,17.47
2019-04-29T15:13:21.242Z,15.50
2019-04-29T15:16:03.769Z,16.63
2019-04-29T15:18:45.909Z,16.47
2019-04-29T15:21:31.014Z,18.47
2019-04-29T15:23:48.227Z,17.67
2019-04-29T15:26:20.289Z,20.57
2019-04-29T15:28:51.444Z,16.73
2019-04-29T15:31:21.819Z,16.87
2019-04-29T15:33:52.111Z,16.00
2019-04-29T15:36:21.239Z,16.83
2019-04-29T15:39:08.265Z,16.63
2019-04-29T15:41:25.443Z,14.50
2019-04-29T15:44:06.086Z,16.13
2019-04-29T15:46:23.209Z,16.90
2019-04-29T15:48:52.334Z,21.93
2019-04-29T15:51:21.540Z,17.53
2019-04-29T15:53:54.187Z,19.83
2019-04-29T15:56:28.660Z,25.43
2019-04-29T15:58:52.684Z,18.20
2019-04-29T16:01:27.011Z,18.73
2019-04-29T16:03:56.551Z,18.83
2019-04-29T16:06:27.069Z,20.47
2019-04-29T16:08:59.036Z,17.17
2019-04-29T16:11:39.393Z,18.20
2019-04-29T16:14:11.144Z,19.90
2019-04-29T16:16:40.272Z,20.17
2019-04-29T16:19:10.511Z,20.23
2019-04-29T16:21:41.788Z,22.97
2019-04-29T16:24:25.691Z,23.30
2019-04-29T16:26:41.501Z,26.53
2019-04-29T16:29:13.355Z,26.17
2019-04-29T16:31:41.563Z,22.70
2019-04-29T16:34:10.959Z,23.57
2019-04-29T16:36:43.750Z,22.70
2019-04-29T16:39:11.182Z,22.13
2019-04-29T16:41:50.981Z,23.50
2019-04-29T16:44:34.698Z,27.87
2019-04-29T16:46:49.979Z,24.73
2019-04-29T16:49:19.571Z,23.87
2019-04-29T16:51:53.452Z,22.90
2019-04-29T16:54:22.246Z,23.57
2019-04-29T16:56:50.939Z,23.33
2019-04-29T16:59:20.360Z,27.50
2019-04-29T17:01:49.994Z,25.30
2019-04-29T17:04:20.106Z,30.83
2019-04-29T17:07:11.329Z,28.10
2019-04-29T17:09:24.735Z,31.63
2019-04-29T17:11:58.434Z,33.37
2019-04-29T17:14:27.731Z,28.43
2019-04-29T17:16:56.941Z,31.23
2019-04-29T17:19:26.066Z,34.60
2019-04-29T17:22:23.623Z,31.50
2019-04-29T17:24:26.051Z,32.07
2019-04-29T17:27:00.039Z,36.73
2019-04-29T17:29:45.434Z,31.57
2019-04-29T17:32:11.866Z,31.67
2019-04-29T17:34:57.923Z,35.93
2019-04-29T17:37:13.065Z,36.37
2019-04-29T17:39:42.212Z,33.20
2019-04-29T17:42:11.507Z,36.40
2019-04-29T17:44:42.296Z,36.57
2019-04-29T17:47:13.343Z,34.77
2019-04-29T17:49:50.674Z,36.63
2019-04-29T17:52:21.584Z,38.77
2019-04-29T17:54:52.738Z,35.97
2019-04-29T17:57:39.870Z,36.17
2019-04-29T18:00:10.627Z,38.50
2019-04-29T18:03:00.878Z,36.70
2019-04-29T18:05:34.457Z,38.40
2019-04-29T18:08:12.263Z,42.07
2019-04-29T18:10:55.709Z,37.40
2019-04-29T18:13:26.388Z,40.87
2019-04-29T18:16:01.443Z,43.47
2019-04-29T18:18:28.404Z,48.67
2019-04-29T18:20:59.559Z,44.90
2019-04-29T18:23:51.511Z,38.20
2019-04-29T18:26:32.152Z,44.87
2019-04-29T18:29:03.915Z,43.00
2019-04-29T18:31:33.560Z,39.87
2019-04-29T18:34:02.700Z,47.10
2019-04-29T18:36:32.168Z,37.07
2019-04-29T18:39:01.348Z,42.77
2019-04-29T18:41:32.298Z,43.83
2019-04-29T18:44:03.198Z,39.43
2019-04-29T18:46:35.014Z,40.80
2019-04-29T18:49:06.548Z,43.57
2019-04-29T18:51:34.806Z,42.43
2019-04-29T18:54:04.023Z,38.47
2019-04-29T18:56:36.357Z,40.47
2019-04-29T18:59:04.004Z,47.13
2019-04-29T19:01:34.582Z,41.50
2019-04-29T19:04:22.418Z,41.30
2019-04-29T19:06:59.111Z,39.83
2019-04-29T19:09:25.275Z,38.73
2019-04-29T19:11:55.319Z,38.60
2019-04-29T19:14:28.074Z,38.47
2019-04-29T19:16:59.577Z,38.27
2019-04-29T19:19:26.307Z,39.57
2019-04-29T19:21:55.843Z,39.47
2019-04-29T19:24:27.447Z,38.80
2019-04-29T19:27:00.643Z,46.53
2019-04-29T19:29:26.820Z,43.97
2019-04-29T19:31:55.951Z,45.33
2019-04-29T19:34:25.261Z,43.57
2019-04-29T19:36:55.802Z,39.83
2019-04-29T19:39:27.028Z,44.50
2019-04-29T19:41:56.363Z,42.30
2019-04-29T19:44:26.522Z,46.50
2019-04-29T19:46:58.979Z,45.87
2019-04-29T19:49:27.548Z,48.33
2019-04-29T19:51:56.673Z,45.17
2019-04-29T19:54:28.431Z,45.67
2019-04-29T19:57:03.203Z,45.00
2019-04-29T19:59:29.169Z,42.83
2019-04-29T20:02:05.180Z,46.13
2019-04-29T20:04:52.401Z,48.23
2019-04-29T20:07:21.625Z,48.83
2019-04-29T20:10:00.074Z,47.80
2019-04-29T20:12:22.551Z,47.53
2019-04-29T20:14:58.725Z,49.17
2019-04-29T20:17:30.536Z,50.53
2019-04-29T20:20:05.062Z,62.43
2019-04-29T20:22:37.040Z,57.73
2019-04-29T20:25:06.563Z,53.90
2019-04-29T20:27:37.669Z,55.30
2019-04-29T20:30:15.775Z,50.70
2019-04-29T20:32:38.695Z,59.57
2019-04-29T20:35:08.871Z,53.00
2019-04-29T20:37:39.509Z,52.13
2019-04-29T20:40:09.272Z,53.00
2019-04-29T20:42:40.332Z,63.47
2019-04-29T20:45:09.438Z,57.90
2019-04-29T20:47:41.986Z,60.60
2019-04-29T20:50:14.002Z,59.63
2019-04-29T20:52:43.583Z,59.47
2019-04-29T20:55:13.128Z,57.73
2019-04-29T20:57:42.487Z,55.97
2019-04-29T21:00:11.906Z,74.10
2019-04-29T21:02:41.402Z,75.47
2019-04-29T21:05:19.644Z,89.73
2019-04-29T21:07:41.570Z,72.87
2019-04-29T21:10:11.035Z,83.73
2019-04-29T21:13:00.098Z,78.37
2019-04-29T21:15:33.645Z,104.03
2019-04-29T21:18:02.791Z,93.37
2019-04-29T21:20:31.915Z,107.77
2019-04-29T21:23:03.599Z,115.20
2019-04-29T21:25:32.729Z,124.87
2019-04-29T21:28:05.213Z,177.73
2019-04-29T21:30:37.763Z,108.53
2019-04-29T21:33:09.625Z,99.77
2019-04-29T21:35:45.470Z,90.70
2019-04-29T21:38:22.377Z,72.00
2019-04-29T21:40:52.612Z,72.67
2019-04-29T21:43:26.212Z,70.70
2019-04-29T21:45:55.697Z,69.67
2019-04-29T21:48:33.488Z,64.87
2019-04-29T21:50:56.870Z,72.00
2019-04-29T21:53:26.010Z,59.50
2019-04-29T21:55:55.480Z,71.60
2019-04-29T21:58:28.709Z,80.30
2019-04-29T22:00:59.092Z,60.10
2019-04-29T22:03:28.087Z,60.43
2019-04-29T22:06:00.351Z,64.23
2019-04-29T22:08:31.656Z,66.80
2019-04-29T22:11:04.872Z,69.73
2019-04-29T22:13:35.509Z,98.87
